Search for airport 
image banner adimage banner adimage banner ad
image banner ad

46CN - Crystal

Located in Llano, United States

ICAO - 46CN, IATA -

Data provided by Airmate  

General information

Coordinates: N34°29'5" W117°49'35"
Elevation is 3420 feet MSL.
Magnetic variation is 14° East
View others Airports in California

Operational data

Special qualification required
Current time UTC:
Current local time:
Weather at : KPMD - Palmdale Usaf Plant 42 ( 29 km )
METAR: KPMD 221253Z AUTO 09004KT 10SM CLR 18/04 A2996 RMK AO2 SLP118 T01830044
TAF: KPMD 221136Z 2212/2312 VRB05KT P6SM SKC FM221800 24012KT P6SM SKC FM222100 24017G25KT P6SM SKC FM230400 23010KT P6SM SKC FM230900 VRB05KT P6SM SKC
View NOTAMs / SUP AIP / TFR affecting this airport [VIEW]
Communications frequencies: [VIEW]

Runways:

RWY identifierQFULength (ft)Width (ft)SurfaceLDA (ft)
074500250OTHER
254500250OTHER

Airport contact information

Address: Llano United States

Satellite view of 46CN